RCSS/TSA METAR and TAF weather

Enter ICAO airport designator
Station Type Date Time Source
RCSS METAR 2019/05/20 10:30 UTC NOAA

RCSS 201030Z 08008KT 050V110 9999 FEW006 BKN025 BKN035 23/20 Q1010 NOSIG RMK A2985


Station Type Date Time Source
RCSS Decoded METAR 2019/05/20 10:30 UTC NOAA

Sungshan / Taipei, Taiwan (RCSS) 25-04N 121-33E
May 20, 2019 - 06:30 AM EDT / 2019.05.20 1030 UTC
Wind: from the E (080 degrees) at 9 MPH (8 KT) (direction variable):0
Visibility: greater than 7 mile(s):0
Sky conditions: mostly cloudy
Temperature: 73 F (23 C)
Dew Point: 68 F (20 C)
Relative Humidity: 83%
Pressure (altimeter): 29.83 in. Hg (1010 hPa)
ob: RCSS 201030Z 08008KT 050V110 9999 FEW006 BKN025 BKN035 23/20 Q1010 NOSIG RMK A2985
cycle: 10

Station Type Date Time Source
RCSS TAF 2019/05/20 06:09 UTC NOAA

TAF RCSS 200500Z 2006/2106 09010KT 9000 FEW016 BKN032
TEMPO 2006/2012 08005KT 4000 SHRA FEW008 BKN018
TEMPO 2100/2106 10016KT

Example: see airport list